Time;durP1;ratioP1;P1;durP2;ratioP2;P2;SDS_P1;SDS_P2;PMS_P1;PMS_P2;Temp;Humidity;BMP_temperature;BMP_pressure;BME280_temperature;BME280_humidity;BME280_pressure;Samples;Min_cycle;Max_cycle;Signal;HPM_P1;HPM_P2
2021/08/10 00:00:08;;;;;;;2.87;2.60;;;17.00;99.80;;;;;;6065452;23;20443;-86
2021/08/10 00:02:36;;;;;;;2.60;1.97;;;17.00;99.80;;;;;;6078268;23;20442;-86
2021/08/10 00:05:06;;;;;;;2.43;2.30;;;16.90;99.80;;;;;;6064126;23;20495;-86
2021/08/10 00:07:35;;;;;;;2.13;1.80;;;16.90;99.80;;;;;;6074916;23;20455;-86
2021/08/10 00:10:03;;;;;;;2.57;2.33;;;16.80;99.80;;;;;;6072304;23;20442;-86
2021/08/10 00:12:33;;;;;;;4.13;2.47;;;16.80;99.80;;;;;;6073356;23;20444;-86
2021/08/10 00:15:01;;;;;;;2.33;2.13;;;16.70;99.80;;;;;;6060832;23;20435;-86
2021/08/10 00:17:29;;;;;;;2.60;2.40;;;16.60;99.80;;;;;;6066729;23;20446;-86
2021/08/10 00:19:57;;;;;;;4.03;2.80;;;16.60;99.80;;;;;;6068847;23;20788;-86
2021/08/10 00:22:27;;;;;;;3.63;2.43;;;16.50;99.80;;;;;;6069300;23;20442;-86
2021/08/10 00:24:55;;;;;;;2.60;2.30;;;16.50;99.80;;;;;;6064686;23;20439;-86
2021/08/10 00:27:23;;;;;;;3.43;2.80;;;16.60;99.80;;;;;;6067280;23;20450;-86
2021/08/10 00:29:53;;;;;;;4.90;2.63;;;16.50;99.80;;;;;;6060842;23;21333;-86
2021/08/10 00:32:21;;;;;;;3.27;2.30;;;;;;;;;;6065700;23;20451;-86
2021/08/10 00:34:50;;;;;;;3.13;2.47;;;16.60;99.80;;;;;;6052020;23;20440;-86
2021/08/10 00:37:18;;;;;;;3.57;2.40;;;16.60;99.80;;;;;;6061933;23;20439;-86
2021/08/10 00:39:46;;;;;;;3.03;2.57;;;16.60;99.80;;;;;;6071406;23;20446;-86
2021/08/10 00:42:17;;;;;;;2.57;2.37;;;16.60;99.80;;;;;;6076784;23;20438;-86
2021/08/10 00:44:45;;;;;;;5.80;2.70;;;16.60;99.80;;;;;;6065188;23;20450;-86
2021/08/10 00:47:14;;;;;;;2.93;2.37;;;16.70;99.80;;;;;;6069645;23;20983;-86
2021/08/10 00:49:42;;;;;;;3.10;2.50;;;;;;;;;;6063992;23;20454;-86
2021/08/10 00:52:11;;;;;;;3.33;2.30;;;16.70;99.80;;;;;;6072931;23;20454;-86
2021/08/10 00:54:39;;;;;;;4.20;2.80;;;16.70;99.80;;;;;;6079437;23;20792;-86
2021/08/10 00:57:09;;;;;;;4.70;2.20;;;16.70;99.80;;;;;;6058837;23;20437;-86
2021/08/10 00:59:37;;;;;;;3.90;2.23;;;16.60;99.80;;;;;;6072501;23;20521;-86
2021/08/10 01:02:06;;;;;;;5.00;2.60;;;16.60;99.80;;;;;;6055635;23;20458;-85
2021/08/10 01:04:37;;;;;;;3.00;2.50;;;16.50;99.80;;;;;;6065237;23;20788;-86
2021/08/10 01:07:11;;;;;;;5.80;2.67;;;16.40;99.80;;;;;;6085664;23;20452;-86
2021/08/10 01:09:48;;;;;;;5.03;3.07;;;16.40;99.80;;;;;;6085633;23;20440;-86
2021/08/10 01:12:20;;;;;;;5.87;2.80;;;16.30;99.80;;;;;;6088715;23;20470;-86
2021/08/10 01:14:55;;;;;;;3.57;2.77;;;16.20;99.80;;;;;;6088780;23;20443;-86
2021/08/10 01:17:28;;;;;;;3.70;2.50;;;16.20;99.80;;;;;;6063468;23;20449;-86
2021/08/10 01:20:40;;;;;;;2.63;2.43;;;16.20;99.80;;;;;;6058712;23;20733;-86
2021/08/10 01:23:13;;;;;;;2.90;2.63;;;16.10;99.80;;;;;;6064269;23;20442;-86
2021/08/10 01:25:55;;;;;;;4.70;2.53;;;16.10;99.80;;;;;;6052764;23;20453;-86
2021/08/10 01:28:35;;;;;;;8.70;3.50;;;16.10;99.80;;;;;;6045186;23;20465;-86
2021/08/10 01:31:24;;;;;;;3.70;2.90;;;16.10;99.80;;;;;;6047965;23;20463;-86
2021/08/10 01:33:58;;;;;;;2.60;2.40;;;16.10;99.80;;;;;;6045141;23;20442;-86
2021/08/10 01:36:27;;;;;;;3.03;2.77;;;16.00;99.80;;;;;;6035676;23;20442;-86
2021/08/10 01:38:59;;;;;;;5.30;2.90;;;15.90;99.80;;;;;;6050487;23;20437;-86
2021/08/10 01:41:28;;;;;;;4.20;3.47;;;15.90;99.80;;;;;;6029854;23;21053;-86
2021/08/10 01:43:59;;;;;;;4.30;2.87;;;15.80;99.80;;;;;;6040415;23;20446;-86
2021/08/10 01:46:30;;;;;;;3.73;3.17;;;15.80;99.80;;;;;;6017559;23;20440;-86
2021/08/10 01:48:59;;;;;;;3.80;3.17;;;15.80;99.80;;;;;;6032435;23;20536;-87
2021/08/10 01:51:29;;;;;;;8.77;3.33;;;15.80;99.80;;;;;;6052209;23;20437;-86
2021/08/10 01:54:01;;;;;;;3.50;3.20;;;15.70;99.80;;;;;;6059759;23;20769;-86
2021/08/10 01:56:30;;;;;;;3.93;3.00;;;15.70;99.80;;;;;;6059999;23;20442;-86
2021/08/10 01:58:59;;;;;;;5.73;4.33;;;15.70;99.80;;;;;;6037810;23;20447;-86
2021/08/10 02:01:30;;;;;;;4.63;3.10;;;15.70;99.80;;;;;;5984626;23;20454;-86
2021/08/10 02:03:59;;;;;;;3.23;2.80;;;15.70;99.80;;;;;;6065737;23;20427;-87
2021/08/10 02:06:27;;;;;;;3.30;3.00;;;15.70;99.80;;;;;;6065591;23;20444;-86
2021/08/10 02:08:57;;;;;;;3.80;3.20;;;15.70;99.80;;;;;;6065758;23;20414;-87
2021/08/10 02:11:26;;;;;;;4.47;3.27;;;15.70;99.80;;;;;;6065957;23;20457;-86
2021/08/10 02:13:56;;;;;;;3.63;3.30;;;15.70;99.80;;;;;;6066236;23;20421;-86
2021/08/10 02:16:25;;;;;;;5.63;3.87;;;15.70;99.80;;;;;;6065798;23;20401;-86
2021/08/10 02:18:55;;;;;;;4.43;3.07;;;15.70;99.80;;;;;;6066581;23;20967;-86
2021/08/10 02:21:30;;;;;;;3.40;3.10;;;15.70;99.80;;;;;;6069748;23;20418;-86
2021/08/10 02:24:03;;;;;;;4.23;2.93;;;15.80;99.80;;;;;;6094342;23;20426;-86
2021/08/10 02:26:33;;;;;;;5.40;3.97;;;15.80;99.80;;;;;;6095172;23;20421;-86
2021/08/10 02:29:02;;;;;;;5.60;3.10;;;15.80;99.80;;;;;;6094236;23;20398;-86
2021/08/10 02:31:31;;;;;;;4.37;2.63;;;15.90;99.80;;;;;;6094153;23;20432;-86
2021/08/10 02:34:01;;;;;;;8.13;3.47;;;15.90;99.80;;;;;;6094761;23;20419;-86
2021/08/10 02:36:31;;;;;;;4.27;3.27;;;15.90;99.80;;;;;;6094963;23;20386;-86
2021/08/10 02:39:05;;;;;;;5.90;3.17;;;15.90;99.80;;;;;;6094691;23;20398;-86
2021/08/10 02:41:35;;;;;;;6.43;3.03;;;15.90;99.80;;;;;;6094251;23;20412;-86
2021/08/10 02:44:04;;;;;;;3.57;3.23;;;16.00;99.80;;;;;;6093804;23;20464;-86
2021/08/10 02:46:32;;;;;;;3.70;3.30;;;16.00;99.80;;;;;;6093921;23;20445;-86
2021/08/10 02:49:02;;;;;;;3.33;3.00;;;16.00;99.80;;;;;;6093798;23;20408;-86
2021/08/10 02:51:30;;;;;;;6.67;3.80;;;16.00;99.80;;;;;;6093639;23;21015;-86
2021/08/10 02:53:58;;;;;;;6.13;3.60;;;16.00;99.80;;;;;;6094377;23;20511;-86
2021/08/10 02:56:30;;;;;;;13.60;3.60;;;16.00;99.80;;;;;;6093594;23;20414;-86
2021/08/10 02:59:02;;;;;;;3.60;2.83;;;16.00;99.80;;;;;;6094412;23;20384;-86
2021/08/10 03:01:36;;;;;;;4.73;3.80;;;16.00;99.80;;;;;;6093885;23;20394;-86
2021/08/10 03:04:07;;;;;;;6.00;3.80;;;16.00;99.80;;;;;;6093857;23;20429;-86
2021/08/10 03:06:35;;;;;;;3.40;3.10;;;16.00;99.80;;;;;;6093912;23;20492;-86
2021/08/10 03:09:04;;;;;;;5.87;3.83;;;16.00;99.80;;;;;;6093748;23;20410;-86
2021/08/10 03:11:38;;;;;;;5.93;3.73;;;16.00;99.80;;;;;;6093853;23;20410;-86
2021/08/10 03:14:09;;;;;;;4.70;3.93;;;15.90;99.80;;;;;;6093395;23;20442;-86
2021/08/10 03:16:38;;;;;;;3.57;3.27;;;16.00;99.80;;;;;;6094009;23;20407;-86
2021/08/10 03:19:10;;;;;;;5.80;3.73;;;15.90;99.80;;;;;;6056803;23;20439;-86
2021/08/10 03:21:39;;;;;;;3.60;3.27;;;15.90;99.80;;;;;;6062940;23;20429;-86
2021/08/10 03:24:10;;;;;;;8.20;3.50;;;15.90;99.80;;;;;;6067111;23;20854;-86
2021/08/10 03:26:41;;;;;;;4.20;3.40;;;15.90;99.80;;;;;;6062757;23;20442;-86
2021/08/10 03:29:10;;;;;;;3.87;3.47;;;15.90;99.80;;;;;;6078856;23;20441;-86
2021/08/10 03:31:39;;;;;;;4.83;3.63;;;15.90;99.80;;;;;;6083363;23;20442;-86
2021/08/10 03:34:10;;;;;;;4.07;2.90;;;15.90;99.80;;;;;;6082459;23;20444;-86
2021/08/10 03:36:38;;;;;;;4.70;3.67;;;15.80;99.80;;;;;;6080026;23;20437;-86
2021/08/10 03:39:06;;;;;;;7.27;4.13;;;15.80;99.80;;;;;;6088178;23;20839;-86
2021/08/10 03:41:34;;;;;;;5.37;4.47;;;15.80;99.80;;;;;;6084592;23;20435;-86
2021/08/10 03:44:03;;;;;;;6.73;4.57;;;15.80;99.80;;;;;;6081343;23;20440;-86
2021/08/10 03:46:33;;;;;;;5.77;3.80;;;15.80;99.80;;;;;;6072537;23;20429;-86
2021/08/10 03:49:01;;;;;;;8.80;3.87;;;15.80;99.80;;;;;;6078031;23;20429;-86
2021/08/10 03:51:32;;;;;;;10.80;4.83;;;15.80;99.80;;;;;;6076853;23;21001;-86
2021/08/10 03:54:00;;;;;;;5.60;4.27;;;15.80;99.80;;;;;;6087208;23;20845;-87
2021/08/10 03:56:29;;;;;;;5.87;4.10;;;15.80;99.80;;;;;;6082836;23;20433;-86
2021/08/10 03:58:58;;;;;;;5.70;4.13;;;15.80;99.80;;;;;;6056318;23;20436;-86
2021/08/10 04:01:27;;;;;;;7.70;3.93;;;15.70;99.80;;;;;;6038633;23;20442;-86
2021/08/10 04:03:58;;;;;;;6.73;3.67;;;15.70;99.80;;;;;;6052540;23;20447;-86
2021/08/10 04:06:27;;;;;;;5.77;3.60;;;15.70;99.80;;;;;;6072199;23;20443;-85
2021/08/10 04:08:56;;;;;;;4.63;3.83;;;15.70;99.80;;;;;;6083052;23;20429;-85
2021/08/10 04:11:24;;;;;;;7.40;4.03;;;15.70;99.80;;;;;;6086291;23;20434;-85
2021/08/10 04:13:52;;;;;;;7.77;4.17;;;15.70;99.80;;;;;;6087206;23;20446;-85
2021/08/10 04:16:22;;;;;;;5.47;3.33;;;15.70;99.80;;;;;;6088224;23;20493;-85
2021/08/10 04:18:51;;;;;;;6.73;4.10;;;15.70;99.80;;;;;;6076851;23;20447;-85
2021/08/10 04:21:20;;;;;;;6.67;4.57;;;15.70;99.80;;;;;;6076340;23;20438;-85
2021/08/10 04:23:48;;;;;;;6.13;4.70;;;;;;;;;;6056710;23;20469;-85
2021/08/10 04:26:17;;;;;;;4.83;4.00;;;15.70;99.80;;;;;;6057726;23;20437;-85
2021/08/10 04:28:45;;;;;;;4.10;3.70;;;15.70;99.80;;;;;;6051354;23;20454;-85
2021/08/10 04:31:16;;;;;;;4.73;4.30;;;15.70;99.80;;;;;;6040256;23;20443;-85
2021/08/10 04:33:44;;;;;;;3.87;3.30;;;15.80;99.80;;;;;;6053269;23;20477;-85
2021/08/10 04:36:12;;;;;;;6.90;4.47;;;15.80;99.80;;;;;;6048575;23;20449;-85
2021/08/10 04:38:40;;;;;;;4.33;3.93;;;15.80;99.80;;;;;;6048493;23;20500;-84
2021/08/10 04:41:08;;;;;;;4.20;3.47;;;15.90;99.80;;;;;;6051932;23;20452;-85
2021/08/10 04:43:37;;;;;;;3.87;3.57;;;15.90;99.80;;;;;;6048522;23;20445;-85
2021/08/10 04:46:05;;;;;;;4.33;3.93;;;15.90;99.80;;;;;;6039445;23;20777;-85
2021/08/10 04:48:33;;;;;;;4.87;3.40;;;15.90;99.80;;;;;;6050798;23;20442;-85
2021/08/10 04:51:01;;;;;;;5.30;3.20;;;15.90;99.80;;;;;;6045003;23;20471;-85
2021/08/10 04:53:29;;;;;;;6.90;3.40;;;16.00;99.80;;;;;;6056552;23;21138;-85
2021/08/10 04:55:57;;;;;;;5.17;3.97;;;16.00;99.80;;;;;;6057240;23;20444;-85
2021/08/10 04:58:25;;;;;;;5.67;3.53;;;16.00;99.80;;;;;;6059041;23;20453;-85
2021/08/10 05:00:54;;;;;;;4.30;3.90;;;16.10;99.80;;;;;;6017549;23;20434;-85
2021/08/10 05:03:23;;;;;;;6.30;4.10;;;;;;;;;;6052145;23;20576;-84
2021/08/10 05:05:51;;;;;;;4.03;3.63;;;16.10;99.80;;;;;;6045872;23;20446;-85
2021/08/10 05:08:19;;;;;;;7.47;3.83;;;16.10;99.80;;;;;;6052824;23;20446;-84
2021/08/10 05:10:47;;;;;;;4.90;3.53;;;16.10;99.80;;;;;;6043585;23;20446;-85
2021/08/10 05:13:15;;;;;;;4.27;3.43;;;16.20;99.80;;;;;;6038453;23;20469;-85
2021/08/10 05:15:43;;;;;;;5.37;4.23;;;16.20;99.80;;;;;;6055010;23;20524;-85
2021/08/10 05:18:13;;;;;;;4.20;3.90;;;16.20;99.80;;;;;;6051930;23;20453;-85
2021/08/10 05:20:41;;;;;;;4.20;3.43;;;16.10;99.80;;;;;;6051123;23;20465;-85
2021/08/10 05:23:09;;;;;;;5.53;3.87;;;16.10;99.80;;;;;;6084175;23;20445;-85
2021/08/10 05:25:37;;;;;;;3.93;3.47;;;16.20;99.80;;;;;;6089116;23;20756;-85
2021/08/10 05:28:05;;;;;;;5.20;3.43;;;16.30;99.80;;;;;;6084319;23;20474;-85
2021/08/10 05:30:33;;;;;;;4.67;4.20;;;16.30;99.80;;;;;;6077852;23;20438;-84
2021/08/10 05:33:01;;;;;;;6.20;3.60;;;;;;;;;;6078466;23;20439;-85
2021/08/10 05:35:31;;;;;;;4.73;3.33;;;16.40;99.80;;;;;;6075588;23;20488;-84
2021/08/10 05:37:59;;;;;;;4.50;3.63;;;16.40;99.80;;;;;;6087935;23;20846;-85
2021/08/10 05:40:27;;;;;;;6.13;3.60;;;16.40;99.80;;;;;;6084607;23;20450;-85
2021/08/10 05:42:55;;;;;;;9.57;3.20;;;;;;;;;;6082446;23;20447;-85
2021/08/10 05:45:23;;;;;;;4.30;3.40;;;16.40;99.80;;;;;;6074453;23;20775;-85
2021/08/10 05:47:51;;;;;;;4.43;3.70;;;;;;;;;;6072588;23;20436;-85
2021/08/10 05:50:20;;;;;;;9.73;4.13;;;16.60;99.80;;;;;;6067301;23;20446;-85
2021/08/10 05:52:51;;;;;;;4.30;3.43;;;16.60;99.80;;;;;;6085526;23;20442;-85
2021/08/10 05:55:20;;;;;;;6.93;3.23;;;16.80;99.80;;;;;;6084949;23;20478;-85
2021/08/10 05:57:48;;;;;;;5.40;3.60;;;16.80;99.80;;;;;;6088005;23;20779;-85
2021/08/10 06:00:16;;;;;;;6.50;3.60;;;16.80;99.80;;;;;;6088477;23;20444;-85
2021/08/10 06:02:44;;;;;;;5.87;3.90;;;16.80;99.80;;;;;;6072536;23;20452;-86
2021/08/10 06:05:12;;;;;;;3.63;3.07;;;16.80;99.80;;;;;;6078564;23;20795;-86
2021/08/10 06:07:40;;;;;;;3.70;2.90;;;16.80;99.80;;;;;;6090402;23;20446;-81
2021/08/10 06:10:10;;;;;;;5.00;3.50;;;16.80;99.80;;;;;;6086093;23;20749;-81
2021/08/10 06:12:38;;;;;;;5.33;4.17;;;;;;;;;;6075014;23;20500;-82
2021/08/10 06:15:07;;;;;;;6.20;3.23;;;16.70;99.80;;;;;;6075776;23;20455;-86
2021/08/10 06:17:35;;;;;;;4.97;3.30;;;16.80;99.80;;;;;;6081071;23;20446;-86
2021/08/10 06:20:05;;;;;;;3.27;2.97;;;16.80;99.80;;;;;;6044120;23;20995;-86
2021/08/10 06:22:33;;;;;;;7.03;2.63;;;16.80;99.80;;;;;;6065681;23;21028;-85
2021/08/10 06:25:01;;;;;;;2.73;2.50;;;16.80;99.80;;;;;;6078508;23;20438;-86
2021/08/10 06:27:30;;;;;;;4.50;2.60;;;16.90;99.80;;;;;;6067482;23;20442;-86
2021/08/10 06:29:58;;;;;;;3.30;3.00;;;17.00;99.80;;;;;;6045311;23;21047;-81
2021/08/10 06:32:26;;;;;;;3.40;2.60;;;;;;;;;;6070403;23;20449;-81
2021/08/10 06:34:54;;;;;;;3.97;2.43;;;17.10;99.80;;;;;;6080724;23;20441;-80
2021/08/10 06:37:22;;;;;;;4.40;3.07;;;17.10;99.80;;;;;;6077443;23;20497;-82
2021/08/10 06:39:50;;;;;;;3.83;3.13;;;;;;;;;;6088060;23;20973;-81
2021/08/10 06:42:19;;;;;;;4.70;2.90;;;17.20;99.80;;;;;;6087663;23;20445;-81
2021/08/10 06:44:49;;;;;;;4.93;3.50;;;17.20;99.80;;;;;;6075445;23;20964;-86
2021/08/10 06:47:17;;;;;;;4.70;3.80;;;17.30;99.80;;;;;;6077972;23;20447;-84
2021/08/10 06:49:45;;;;;;;5.07;3.37;;;17.30;99.80;;;;;;6053315;23;20460;-86
2021/08/10 06:52:13;;;;;;;6.10;3.13;;;17.40;99.80;;;;;;6086631;23;20467;-86
2021/08/10 06:54:42;;;;;;;3.40;2.90;;;;;;;;;;6075592;23;20454;-84
2021/08/10 06:57:10;;;;;;;5.00;2.90;;;17.60;99.80;;;;;;6024589;23;20443;-86
2021/08/10 06:59:38;;;;;;;2.77;2.53;;;17.60;99.80;;;;;;6063512;23;21018;-86
2021/08/10 07:02:09;;;;;;;5.07;2.77;;;17.60;99.80;;;;;;6057762;23;20450;-85
2021/08/10 07:04:37;;;;;;;3.50;3.20;;;;;;;;;;6042373;23;20606;-85
2021/08/10 07:07:06;;;;;;;5.50;3.10;;;17.70;99.80;;;;;;6083552;23;20450;-84
2021/08/10 07:09:34;;;;;;;7.00;3.10;;;17.70;99.80;;;;;;6088070;23;20458;-86
2021/08/10 07:12:02;;;;;;;3.17;2.87;;;17.70;99.80;;;;;;6080839;23;20507;-85
2021/08/10 07:14:51;;;;;;;3.00;2.70;;;17.80;99.80;;;;;;6053569;23;20451;-85
2021/08/10 07:17:27;;;;;;;6.60;3.27;;;17.80;99.80;;;;;;6027739;23;20466;-85
2021/08/10 07:20:20;;;;;;;5.43;2.40;;;17.90;99.80;;;;;;6067208;23;20446;-86
2021/08/10 07:22:50;;;;;;;9.00;3.80;;;18.00;99.80;;;;;;6066229;23;20463;-86
2021/08/10 07:25:20;;;;;;;2.53;2.33;;;18.20;99.80;;;;;;6053966;23;20448;-86
2021/08/10 07:28:20;;;;;;;4.40;2.80;;;18.30;99.80;;;;;;6037121;23;20523;-86
2021/08/10 07:31:52;;;;;;;6.10;2.43;;;18.60;99.80;;;;;;5917701;23;20502;-86
2021/08/10 07:35:09;;;;;;;3.33;2.03;;;18.80;99.80;;;;;;5737344;24;20453;-85
2021/08/10 07:37:42;;;;;;;2.30;2.10;;;18.90;99.80;;;;;;6038390;23;20475;-85
2021/08/10 07:40:12;;;;;;;3.57;2.47;;;19.00;99.80;;;;;;6086176;23;20892;-85
2021/08/10 07:42:43;;;;;;;7.87;2.43;;;19.20;99.80;;;;;;6086531;23;20494;-85
2021/08/10 07:45:12;;;;;;;9.60;2.60;;;19.40;99.80;;;;;;6085497;23;20443;-85
2021/08/10 07:47:43;;;;;;;3.23;2.07;;;19.50;99.80;;;;;;6073990;23;20444;-86
2021/08/10 07:50:13;;;;;;;3.47;2.47;;;19.60;99.80;;;;;;6076024;23;20446;-86
2021/08/10 07:52:41;;;;;;;15.60;2.70;;;19.70;99.80;;;;;;6083607;23;20439;-85
2021/08/10 07:55:10;;;;;;;4.90;2.80;;;19.70;99.80;;;;;;6094167;23;20466;-85
2021/08/10 07:57:45;;;;;;;3.30;2.37;;;19.80;99.80;;;;;;6072856;23;20442;-85
2021/08/10 08:00:21;;;;;;;3.80;2.40;;;20.00;99.80;;;;;;6049247;23;20963;-85
2021/08/10 08:02:53;;;;;;;2.87;2.20;;;20.20;99.80;;;;;;6071203;23;21048;-85
2021/08/10 08:05:23;;;;;;;3.43;2.23;;;20.20;99.80;;;;;;6083379;23;20517;-85
2021/08/10 08:07:57;;;;;;;2.50;1.87;;;20.20;99.80;;;;;;6072333;23;20435;-85
2021/08/10 08:10:29;;;;;;;3.93;2.30;;;20.30;99.80;;;;;;6024931;23;20438;-85
2021/08/10 08:13:24;;;;;;;3.87;2.20;;;20.40;99.80;;;;;;6036453;23;20977;-86
2021/08/10 08:15:53;;;;;;;3.43;1.90;;;20.40;99.80;;;;;;6025710;23;20443;-85
2021/08/10 08:18:21;;;;;;;2.90;1.93;;;20.30;99.80;;;;;;6044919;23;21125;-86
2021/08/10 08:20:50;;;;;;;3.43;2.53;;;20.30;99.80;;;;;;6041600;23;20440;-86
2021/08/10 08:23:19;;;;;;;4.10;2.17;;;20.30;99.80;;;;;;6080231;23;20443;-85
2021/08/10 08:25:47;;;;;;;9.87;2.77;;;20.30;99.80;;;;;;6085938;23;20439;-86
2021/08/10 08:28:15;;;;;;;2.93;2.60;;;20.60;99.80;;;;;;6077126;23;20429;-86
2021/08/10 08:30:43;;;;;;;3.40;2.30;;;20.60;99.80;;;;;;6033592;23;20444;-86
2021/08/10 08:33:12;;;;;;;6.07;2.57;;;20.70;99.80;;;;;;6056096;23;20809;-83
2021/08/10 08:35:45;;;;;;;2.40;2.03;;;20.90;99.80;;;;;;6008480;23;20441;-87
2021/08/10 08:38:20;;;;;;;5.03;2.50;;;21.20;99.20;;;;;;6067263;23;20551;-86
2021/08/10 08:40:50;;;;;;;3.07;2.03;;;21.30;98.20;;;;;;6039687;23;20456;-87
2021/08/10 08:43:21;;;;;;;1.80;1.70;;;21.50;99.70;;;;;;6071829;23;20503;-86
2021/08/10 08:45:55;;;;;;;7.40;1.93;;;21.70;99.80;;;;;;6073986;23;20514;-86
2021/08/10 08:48:26;;;;;;;1.67;1.47;;;21.80;97.00;;;;;;6082337;23;20917;-87
2021/08/10 08:50:56;;;;;;;4.40;2.20;;;21.80;99.10;;;;;;6081861;23;20440;-86
2021/08/10 08:53:26;;;;;;;3.80;2.03;;;21.70;98.90;;;;;;6087686;23;20444;-86
2021/08/10 08:55:55;;;;;;;4.90;1.60;;;21.70;99.00;;;;;;6082301;23;20450;-86
2021/08/10 09:01:42;;;;;;;7.17;2.10;;;21.50;96.30;;;;;;6005621;23;20799;-87
2021/08/10 09:04:11;;;;;;;4.07;2.50;;;21.50;97.40;;;;;;6024111;23;20539;-87
2021/08/10 09:06:41;;;;;;;3.67;2.37;;;;;;;;;;6033422;23;20960;-86
2021/08/10 09:09:22;;;;;;;3.40;2.60;;;21.50;97.10;;;;;;6079165;23;20783;-86
2021/08/10 09:11:52;;;;;;;4.50;2.40;;;21.60;98.00;;;;;;6047334;23;20775;-87
2021/08/10 09:14:43;;;;;;;4.03;2.60;;;21.70;96.50;;;;;;6014891;23;20443;-86
2021/08/10 09:17:16;;;;;;;4.43;2.53;;;21.70;96.50;;;;;;6027453;23;20525;-87
2021/08/10 09:19:46;;;;;;;5.17;2.40;;;21.90;97.30;;;;;;6052419;23;20452;-87
2021/08/10 09:22:28;;;;;;;3.37;2.20;;;22.10;96.20;;;;;;6071044;23;20470;-87
2021/08/10 09:25:13;;;;;;;3.07;2.40;;;22.40;95.20;;;;;;6066183;23;20509;-86
2021/08/10 09:27:44;;;;;;;4.90;2.20;;;22.60;95.50;;;;;;6059915;23;20466;-85
2021/08/10 09:33:43;;;;;;;3.10;2.37;;;;;;;;;;6009122;23;20958;-87
2021/08/10 09:36:20;;;;;;;2.47;2.27;;;23.10;97.30;;;;;;6052614;23;20978;-87
2021/08/10 09:38:49;;;;;;;7.60;2.60;;;23.30;95.50;;;;;;6073311;23;20450;-87
2021/08/10 09:41:18;;;;;;;3.60;2.10;;;23.70;94.50;;;;;;6074421;23;20436;-87
2021/08/10 09:43:46;;;;;;;3.10;1.90;;;;;;;;;;6084714;23;20451;-87
2021/08/10 09:46:15;;;;;;;3.80;2.00;;;24.50;94.10;;;;;;6068170;23;20438;-87
2021/08/10 09:48:54;;;;;;;6.47;1.70;;;24.80;92.40;;;;;;6084839;23;20445;-87
2021/08/10 09:51:24;;;;;;;6.70;2.10;;;25.20;90.00;;;;;;6067455;23;20435;-87
2021/08/10 09:53:57;;;;;;;2.77;2.00;;;25.30;87.80;;;;;;6053789;23;20432;-87
2021/08/10 09:56:40;;;;;;;2.37;1.70;;;25.20;90.60;;;;;;6067003;23;20451;-87
2021/08/10 09:59:08;;;;;;;3.07;2.20;;;24.90;88.90;;;;;;6058280;23;20887;-86
2021/08/10 10:01:39;;;;;;;2.67;2.10;;;24.70;91.20;;;;;;6070700;23;20866;-87
2021/08/10 10:04:19;;;;;;;6.47;2.37;;;24.80;91.70;;;;;;6055620;23;20447;-86
2021/08/10 10:06:49;;;;;;;5.30;2.07;;;25.00;90.70;;;;;;6084817;23;20449;-86
2021/08/10 10:09:17;;;;;;;5.47;2.33;;;25.30;87.70;;;;;;6072447;23;20764;-87
2021/08/10 10:11:49;;;;;;;6.03;1.80;;;25.50;87.30;;;;;;6072587;23;20474;-86
2021/08/10 10:14:21;;;;;;;1.90;1.80;;;25.70;86.40;;;;;;6053588;23;20506;-86
2021/08/10 10:16:51;;;;;;;4.67;2.37;;;25.40;87.90;;;;;;6057529;23;20482;-87
2021/08/10 10:19:21;;;;;;;4.30;2.50;;;25.10;86.30;;;;;;6069740;23;20466;-86
2021/08/10 10:21:51;;;;;;;3.13;2.20;;;24.60;88.30;;;;;;6080353;23;20434;-86
2021/08/10 10:24:20;;;;;;;4.60;2.50;;;24.30;90.90;;;;;;6054020;23;20453;-87
2021/08/10 10:26:53;;;;;;;2.60;2.30;;;24.30;89.80;;;;;;6071341;23;20520;-87
2021/08/10 10:29:22;;;;;;;5.40;3.20;;;24.60;89.90;;;;;;6057199;23;20467;-87
2021/08/10 10:31:50;;;;;;;3.10;2.30;;;24.80;88.90;;;;;;6061901;23;21101;-86
2021/08/10 10:34:19;;;;;;;3.00;2.10;;;25.10;89.60;;;;;;6046558;23;21063;-86
2021/08/10 10:36:48;;;;;;;3.40;2.57;;;25.30;88.60;;;;;;6079745;23;20437;-87
2021/08/10 10:39:23;;;;;;;5.07;2.53;;;25.40;87.90;;;;;;6073450;23;20556;-86
2021/08/10 10:41:55;;;;;;;3.63;2.13;;;25.50;85.90;;;;;;6072307;23;20779;-86
2021/08/10 10:44:37;;;;;;;4.70;2.40;;;25.70;87.80;;;;;;6062661;23;21003;-86
2021/08/10 10:47:38;;;;;;;2.50;2.30;;;25.80;87.10;;;;;;6070466;23;20435;-87
2021/08/10 10:50:20;;;;;;;2.63;2.43;;;25.60;86.00;;;;;;6063497;23;20465;-87
2021/08/10 10:53:09;;;;;;;3.30;2.60;;;25.60;86.10;;;;;;6079986;23;20441;-87
2021/08/10 10:55:43;;;;;;;4.17;2.30;;;25.70;89.30;;;;;;6058580;23;20445;-86
2021/08/10 10:58:27;;;;;;;2.90;2.53;;;25.80;87.70;;;;;;6072416;23;20535;-86
2021/08/10 11:01:18;;;;;;;5.90;2.27;;;25.70;85.50;;;;;;6059604;23;20423;-87
2021/08/10 11:04:12;;;;;;;2.10;2.00;;;25.60;85.50;;;;;;6070420;23;20988;-87
2021/08/10 11:06:47;;;;;;;3.60;2.20;;;24.90;87.30;;;;;;6066727;23;20436;-86
2021/08/10 11:09:56;;;;;;;2.73;2.30;;;24.50;89.50;;;;;;6069003;23;21008;-86
2021/08/10 11:12:43;;;;;;;5.97;2.90;;;24.40;89.40;;;;;;6067667;23;20439;-86
2021/08/10 11:15:17;;;;;;;2.93;2.20;;;24.20;89.20;;;;;;6072260;23;20448;-86
2021/08/10 11:18:22;;;;;;;7.03;2.40;;;24.10;90.50;;;;;;6057280;23;20980;-87
2021/08/10 11:20:52;;;;;;;3.33;2.03;;;25.10;88.20;;;;;;6069651;23;20435;-86
2021/08/10 11:23:37;;;;;;;4.13;2.57;;;25.30;90.50;;;;;;6081907;23;21055;-80
2021/08/10 11:26:35;;;;;;;3.80;2.60;;;25.20;91.90;;;;;;6058505;23;20447;-80
2021/08/10 11:29:03;;;;;;;3.83;2.60;;;24.70;93.60;;;;;;6077525;23;20795;-80
2021/08/10 11:31:35;;;;;;;3.93;2.30;;;24.70;93.60;;;;;;6072613;23;20442;-80
2021/08/10 11:34:04;;;;;;;4.00;2.63;;;24.50;95.20;;;;;;6087552;23;20447;-81
2021/08/10 11:36:33;;;;;;;8.93;3.33;;;;;;;;;;6059936;23;20442;-80
2021/08/10 11:39:09;;;;;;;2.20;2.00;;;24.60;95.10;;;;;;6087235;23;20443;-81
2021/08/10 11:41:38;;;;;;;3.80;2.50;;;24.40;93.10;;;;;;6084493;23;20982;-80
2021/08/10 11:44:18;;;;;;;9.30;2.63;;;24.50;92.40;;;;;;6074485;23;21022;-79
2021/08/10 11:46:50;;;;;;;3.07;2.07;;;24.50;91.90;;;;;;6071169;23;20442;-80
2021/08/10 11:49:22;;;;;;;4.10;2.93;;;24.10;94.30;;;;;;6060579;23;20447;-80
2021/08/10 11:51:53;;;;;;;2.67;2.40;;;24.00;93.50;;;;;;6083492;23;20446;-80
2021/08/10 11:54:23;;;;;;;6.47;2.67;;;23.90;92.20;;;;;;6068011;23;20811;-79
2021/08/10 11:56:54;;;;;;;3.40;3.10;;;23.90;92.20;;;;;;6071407;23;20495;-80
2021/08/10 11:59:24;;;;;;;3.50;2.50;;;23.70;93.90;;;;;;6064579;23;20535;-80
2021/08/10 12:01:58;;;;;;;4.40;3.00;;;23.80;94.40;;;;;;6067072;23;20470;-80
2021/08/10 12:04:28;;;;;;;2.90;2.60;;;24.80;92.50;;;;;;6065902;23;20453;-81
2021/08/10 12:06:57;;;;;;;4.90;2.57;;;26.20;86.40;;;;;;6050733;23;20450;-80
2021/08/10 12:09:27;;;;;;;4.40;2.47;;;27.60;82.50;;;;;;6065907;23;20442;-81
2021/08/10 12:11:56;;;;;;;4.60;2.60;;;;;;;;;;6072069;23;20453;-82
2021/08/10 12:14:25;;;;;;;6.00;2.13;;;;;;;;;;6057927;23;20446;-80
2021/08/10 12:16:59;;;;;;;4.67;2.70;;;;;;;;;;6062982;23;20450;-80
2021/08/10 12:19:34;;;;;;;2.20;1.90;;;;;;;;;;6065285;23;20804;-80
2021/08/10 12:22:03;;;;;;;4.63;2.70;;;;;;;;;;6059712;23;20446;-88
2021/08/10 12:24:35;;;;;;;4.10;2.60;;;35.90;61.10;;;;;;6043359;23;20472;-88
2021/08/10 12:27:04;;;;;;;2.83;2.13;;;35.30;62.10;;;;;;6037614;23;20876;-88
2021/08/10 12:29:33;;;;;;;2.47;2.27;;;35.60;62.90;;;;;;6025248;23;20455;-88
2021/08/10 12:32:03;;;;;;;3.13;2.23;;;36.60;60.90;;;;;;6024280;23;20965;-88
2021/08/10 12:34:32;;;;;;;4.77;2.40;;;37.00;58.20;;;;;;6017916;23;20448;-88
2021/08/10 12:37:01;;;;;;;2.77;2.57;;;35.80;58.60;;;;;;6033850;23;20603;-88
2021/08/10 12:39:29;;;;;;;3.07;2.57;;;34.80;60.50;;;;;;6017017;23;20946;-88
2021/08/10 12:42:00;;;;;;;5.00;2.43;;;34.60;62.60;;;;;;6016863;23;20441;-87
2021/08/10 12:44:29;;;;;;;2.97;2.70;;;34.60;62.30;;;;;;6022712;23;20452;-88
2021/08/10 12:46:58;;;;;;;4.43;2.70;;;33.10;64.90;;;;;;5967189;23;20446;-87
2021/08/10 12:49:37;;;;;;;2.50;2.30;;;31.30;67.60;;;;;;6018362;23;20445;-88
2021/08/10 12:52:07;;;;;;;2.70;2.43;;;29.50;71.40;;;;;;6029115;23;20445;-88
2021/08/10 12:54:37;;;;;;;4.07;2.93;;;28.30;73.90;;;;;;6041266;23;20497;-87
2021/08/10 12:57:18;;;;;;;3.10;2.80;;;27.10;76.10;;;;;;6035057;23;20451;-88
2021/08/10 12:59:50;;;;;;;4.53;2.77;;;26.30;80.20;;;;;;6057358;23;20443;-87
2021/08/10 13:02:54;;;;;;;3.13;2.73;;;25.70;80.80;;;;;;6041282;23;20440;-87
2021/08/10 13:05:38;;;;;;;4.23;2.80;;;25.60;83.50;;;;;;6041479;23;20444;-88
2021/08/10 13:08:08;;;;;;;4.53;2.83;;;25.70;83.20;;;;;;6058267;23;20451;-87
2021/08/10 13:10:38;;;;;;;4.03;2.90;;;25.70;80.30;;;;;;6052662;23;20466;-87
2021/08/10 13:13:07;;;;;;;4.53;3.10;;;25.70;81.40;;;;;;6036041;23;20440;-87
2021/08/10 13:15:43;;;;;;;3.53;3.03;;;25.50;81.80;;;;;;6051222;23;20436;-86
2021/08/10 13:18:15;;;;;;;3.67;3.13;;;25.50;81.40;;;;;;6054436;23;20939;-87
2021/08/10 13:20:52;;;;;;;3.07;2.87;;;25.30;83.50;;;;;;6029276;23;20454;-87
2021/08/10 13:23:20;;;;;;;2.80;2.60;;;25.00;83.60;;;;;;6070094;23;21006;-87